KDSM/DSM METAR and TAF weather

Enter ICAO airport designator
Station Type Date Time Source
KDSM METAR 2022/12/10 00:54 UTC NOAA

KDSM 100054Z 00000KT 10SM OVC009 02/01 A3015 RMK AO2 SLP216 T00220006


Station Type Date Time Source
KDSM Decoded METAR 2022/12/10 00:54 UTC NOAA

DES MOINES INTERNATIONAL, IA, United States (KDSM) 41-32N 93-40W 295M
Dec 09, 2022 - 07:54 PM EST / 2022.12.10 0054 UTC
Wind: Calm:0
Visibility: 10 mile(s):0
Sky conditions: overcast
Temperature: 36.0 F (2.2 C)
Dew Point: 33.1 F (0.6 C)
Relative Humidity: 89%
Pressure (altimeter): 30.15 in. Hg (1020 hPa)
ob: KDSM 100054Z 00000KT 10SM OVC009 02/01 A3015 RMK AO2 SLP216 T00220006
cycle: 1

Station Type Date Time Source
KDSM TAF 2022/12/09 20:42 UTC NOAA

TAF
AMD KDSM 091940Z 0920/1018 01007KT P6SM OVC008
FM092200 VRB03KT 5SM BR OVC004
FM100600 13005KT 4SM BR OVC005
FM101600 18006KT 5SM BR BKN007

Example: see airport list